sensor_id;sensor_type;location;lat;lon;timestamp;P1;durP1;ratioP1;P2;durP2;ratioP2
37885;SDS011;23726;52.520;13.434;2022-07-29T00:00:38;5.63;;;3.90;;
37885;SDS011;23726;52.520;13.434;2022-07-29T00:03:04;4.97;;;3.60;;
37885;SDS011;23726;52.520;13.434;2022-07-29T00:05:30;4.75;;;3.70;;
37885;SDS011;23726;52.520;13.434;2022-07-29T00:07:55;6.07;;;3.88;;
37885;SDS011;23726;52.520;13.434;2022-07-29T00:10:21;8.27;;;3.60;;
37885;SDS011;23726;52.520;13.434;2022-07-29T00:12:48;4.10;;;3.70;;
37885;SDS011;23726;52.520;13.434;2022-07-29T00:15:14;5.68;;;3.88;;
37885;SDS011;23726;52.520;13.434;2022-07-29T00:17:40;5.65;;;3.60;;
37885;SDS011;23726;52.520;13.434;2022-07-29T00:20:07;5.13;;;3.67;;
37885;SDS011;23726;52.520;13.434;2022-07-29T00:22:33;5.53;;;3.78;;
37885;SDS011;23726;52.520;13.434;2022-07-29T00:25:02;5.47;;;3.75;;
37885;SDS011;23726;52.520;13.434;2022-07-29T00:27:28;6.82;;;4.03;;
37885;SDS011;23726;52.520;13.434;2022-07-29T00:29:53;4.97;;;4.10;;
37885;SDS011;23726;52.520;13.434;2022-07-29T00:32:20;8.52;;;4.10;;
37885;SDS011;23726;52.520;13.434;2022-07-29T00:34:45;5.18;;;3.47;;
37885;SDS011;23726;52.520;13.434;2022-07-29T00:37:30;4.10;;;3.67;;
37885;SDS011;23726;52.520;13.434;2022-07-29T00:39:55;5.63;;;4.10;;
37885;SDS011;23726;52.520;13.434;2022-07-29T00:42:22;4.10;;;3.70;;
37885;SDS011;23726;52.520;13.434;2022-07-29T00:44:47;5.53;;;4.07;;
37885;SDS011;23726;52.520;13.434;2022-07-29T00:47:13;5.57;;;4.05;;
37885;SDS011;23726;52.520;13.434;2022-07-29T00:49:39;4.20;;;3.80;;
37885;SDS011;23726;52.520;13.434;2022-07-29T00:52:07;4.97;;;4.13;;
37885;SDS011;23726;52.520;13.434;2022-07-29T00:54:34;4.32;;;3.80;;
37885;SDS011;23726;52.520;13.434;2022-07-29T00:57:00;5.53;;;4.38;;
37885;SDS011;23726;52.520;13.434;2022-07-29T00:59:26;4.22;;;3.83;;
37885;SDS011;23726;52.520;13.434;2022-07-29T01:01:54;4.90;;;4.13;;
37885;SDS011;23726;52.520;13.434;2022-07-29T01:04:20;5.40;;;4.40;;
37885;SDS011;23726;52.520;13.434;2022-07-29T01:06:46;5.47;;;3.95;;
37885;SDS011;23726;52.520;13.434;2022-07-29T01:09:13;4.43;;;3.92;;
37885;SDS011;23726;52.520;13.434;2022-07-29T01:11:40;5.03;;;3.95;;
37885;SDS011;23726;52.520;13.434;2022-07-29T01:14:07;4.93;;;3.92;;
37885;SDS011;23726;52.520;13.434;2022-07-29T01:16:57;4.97;;;4.20;;
37885;SDS011;23726;52.520;13.434;2022-07-29T01:28:30;6.10;;;4.18;;
37885;SDS011;23726;52.520;13.434;2022-07-29T01:30:56;5.43;;;4.32;;
37885;SDS011;23726;52.520;13.434;2022-07-29T01:33:26;5.72;;;4.15;;
37885;SDS011;23726;52.520;13.434;2022-07-29T01:36:16;6.28;;;4.05;;
37885;SDS011;23726;52.520;13.434;2022-07-29T01:38:50;5.28;;;4.00;;
37885;SDS011;23726;52.520;13.434;2022-07-29T01:41:59;4.85;;;3.95;;
37885;SDS011;23726;52.520;13.434;2022-07-29T01:44:34;6.20;;;4.18;;
37885;SDS011;23726;52.520;13.434;2022-07-29T01:47:07;6.40;;;4.25;;
37885;SDS011;23726;52.520;13.434;2022-07-29T01:49:39;7.30;;;4.38;;
37885;SDS011;23726;52.520;13.434;2022-07-29T01:52:11;4.82;;;4.22;;
37885;SDS011;23726;52.520;13.434;2022-07-29T01:54:42;4.93;;;4.10;;
37885;SDS011;23726;52.520;13.434;2022-07-29T01:57:11;6.10;;;4.05;;
37885;SDS011;23726;52.520;13.434;2022-07-29T01:59:39;5.40;;;4.10;;
37885;SDS011;23726;52.520;13.434;2022-07-29T02:02:06;4.60;;;3.90;;
37885;SDS011;23726;52.520;13.434;2022-07-29T02:04:34;7.90;;;4.28;;
37885;SDS011;23726;52.520;13.434;2022-07-29T02:07:02;5.80;;;3.83;;
37885;SDS011;23726;52.520;13.434;2022-07-29T02:09:32;6.30;;;4.20;;
37885;SDS011;23726;52.520;13.434;2022-07-29T02:12:00;4.57;;;4.07;;
37885;SDS011;23726;52.520;13.434;2022-07-29T02:14:28;4.30;;;3.90;;
37885;SDS011;23726;52.520;13.434;2022-07-29T02:16:58;5.35;;;4.63;;
37885;SDS011;23726;52.520;13.434;2022-07-29T02:19:27;5.82;;;4.63;;
37885;SDS011;23726;52.520;13.434;2022-07-29T02:21:54;6.03;;;4.25;;
37885;SDS011;23726;52.520;13.434;2022-07-29T02:24:22;4.70;;;4.15;;
37885;SDS011;23726;52.520;13.434;2022-07-29T02:26:49;5.43;;;4.07;;
37885;SDS011;23726;52.520;13.434;2022-07-29T02:29:19;4.85;;;4.13;;
37885;SDS011;23726;52.520;13.434;2022-07-29T02:31:47;4.88;;;4.00;;
37885;SDS011;23726;52.520;13.434;2022-07-29T02:34:16;4.32;;;3.88;;
37885;SDS011;23726;52.520;13.434;2022-07-29T02:36:44;4.97;;;4.38;;
37885;SDS011;23726;52.520;13.434;2022-07-29T02:39:11;5.18;;;4.15;;
37885;SDS011;23726;52.520;13.434;2022-07-29T02:44:10;5.90;;;4.57;;
37885;SDS011;23726;52.520;13.434;2022-07-29T02:46:49;6.43;;;4.35;;
37885;SDS011;23726;52.520;13.434;2022-07-29T02:52:31;5.68;;;4.00;;
37885;SDS011;23726;52.520;13.434;2022-07-29T02:58:33;6.93;;;4.32;;
37885;SDS011;23726;52.520;13.434;2022-07-29T03:00:53;4.70;;;3.97;;
37885;SDS011;23726;52.520;13.434;2022-07-29T03:03:25;6.22;;;4.38;;
37885;SDS011;23726;52.520;13.434;2022-07-29T03:05:59;5.45;;;3.63;;
37885;SDS011;23726;52.520;13.434;2022-07-29T03:08:27;5.25;;;4.20;;
37885;SDS011;23726;52.520;13.434;2022-07-29T03:10:53;5.88;;;4.45;;
37885;SDS011;23726;52.520;13.434;2022-07-29T03:13:20;6.80;;;4.50;;
37885;SDS011;23726;52.520;13.434;2022-07-29T03:15:46;5.43;;;4.43;;
37885;SDS011;23726;52.520;13.434;2022-07-29T03:18:12;4.30;;;3.90;;
37885;SDS011;23726;52.520;13.434;2022-07-29T03:20:39;4.50;;;3.92;;
37885;SDS011;23726;52.520;13.434;2022-07-29T03:23:05;5.63;;;3.95;;
37885;SDS011;23726;52.520;13.434;2022-07-29T03:25:31;7.72;;;4.20;;
37885;SDS011;23726;52.520;13.434;2022-07-29T03:27:56;5.22;;;4.10;;
37885;SDS011;23726;52.520;13.434;2022-07-29T03:30:22;5.30;;;3.95;;
37885;SDS011;23726;52.520;13.434;2022-07-29T03:32:49;6.13;;;4.63;;
37885;SDS011;23726;52.520;13.434;2022-07-29T03:35:15;5.18;;;3.50;;
37885;SDS011;23726;52.520;13.434;2022-07-29T03:37:43;4.93;;;4.43;;
37885;SDS011;23726;52.520;13.434;2022-07-29T03:40:10;5.47;;;4.32;;
37885;SDS011;23726;52.520;13.434;2022-07-29T03:42:39;4.78;;;3.80;;
37885;SDS011;23726;52.520;13.434;2022-07-29T03:45:09;5.00;;;3.80;;
37885;SDS011;23726;52.520;13.434;2022-07-29T03:47:40;4.63;;;3.85;;
37885;SDS011;23726;52.520;13.434;2022-07-29T03:50:10;5.35;;;3.97;;
37885;SDS011;23726;52.520;13.434;2022-07-29T03:52:39;4.28;;;3.72;;
37885;SDS011;23726;52.520;13.434;2022-07-29T03:55:06;4.63;;;4.10;;
37885;SDS011;23726;52.520;13.434;2022-07-29T03:57:34;5.60;;;4.20;;
37885;SDS011;23726;52.520;13.434;2022-07-29T04:00:02;4.68;;;3.90;;
37885;SDS011;23726;52.520;13.434;2022-07-29T04:02:30;3.70;;;3.40;;
37885;SDS011;23726;52.520;13.434;2022-07-29T04:04:57;4.97;;;3.80;;
37885;SDS011;23726;52.520;13.434;2022-07-29T04:07:22;4.82;;;3.88;;
37885;SDS011;23726;52.520;13.434;2022-07-29T04:09:49;4.40;;;4.00;;
37885;SDS011;23726;52.520;13.434;2022-07-29T04:12:14;6.15;;;4.22;;
37885;SDS011;23726;52.520;13.434;2022-07-29T04:14:41;4.45;;;3.63;;
37885;SDS011;23726;52.520;13.434;2022-07-29T04:17:06;5.25;;;3.88;;
37885;SDS011;23726;52.520;13.434;2022-07-29T04:19:32;5.70;;;4.00;;
37885;SDS011;23726;52.520;13.434;2022-07-29T04:21:58;4.53;;;3.92;;
37885;SDS011;23726;52.520;13.434;2022-07-29T04:24:25;4.85;;;3.67;;
37885;SDS011;23726;52.520;13.434;2022-07-29T04:26:50;6.28;;;4.20;;
37885;SDS011;23726;52.520;13.434;2022-07-29T04:29:16;7.22;;;4.10;;
37885;SDS011;23726;52.520;13.434;2022-07-29T04:31:42;7.13;;;4.10;;
37885;SDS011;23726;52.520;13.434;2022-07-29T04:34:08;5.30;;;4.28;;
37885;SDS011;23726;52.520;13.434;2022-07-29T04:36:36;4.63;;;3.83;;
37885;SDS011;23726;52.520;13.434;2022-07-29T04:39:01;6.03;;;4.05;;
37885;SDS011;23726;52.520;13.434;2022-07-29T04:41:27;4.70;;;4.18;;
37885;SDS011;23726;52.520;13.434;2022-07-29T04:43:53;5.47;;;4.22;;
37885;SDS011;23726;52.520;13.434;2022-07-29T04:46:19;4.15;;;3.75;;
37885;SDS011;23726;52.520;13.434;2022-07-29T04:48:45;4.50;;;4.10;;
37885;SDS011;23726;52.520;13.434;2022-07-29T04:51:13;4.10;;;3.70;;
37885;SDS011;23726;52.520;13.434;2022-07-29T04:53:39;6.38;;;4.03;;
37885;SDS011;23726;52.520;13.434;2022-07-29T04:56:04;4.53;;;4.05;;
37885;SDS011;23726;52.520;13.434;2022-07-29T04:58:30;5.22;;;3.95;;
37885;SDS011;23726;52.520;13.434;2022-07-29T05:00:56;4.88;;;4.43;;
37885;SDS011;23726;52.520;13.434;2022-07-29T05:03:21;4.75;;;3.80;;
37885;SDS011;23726;52.520;13.434;2022-07-29T05:05:47;5.28;;;3.90;;
37885;SDS011;23726;52.520;13.434;2022-07-29T05:08:12;6.75;;;4.35;;
37885;SDS011;23726;52.520;13.434;2022-07-29T05:10:38;10.98;;;4.32;;
37885;SDS011;23726;52.520;13.434;2022-07-29T05:13:05;4.43;;;3.90;;
37885;SDS011;23726;52.520;13.434;2022-07-29T05:15:34;5.53;;;4.10;;
37885;SDS011;23726;52.520;13.434;2022-07-29T05:18:00;5.55;;;4.32;;
37885;SDS011;23726;52.520;13.434;2022-07-29T05:20:26;6.10;;;4.35;;
37885;SDS011;23726;52.520;13.434;2022-07-29T05:22:54;6.60;;;4.20;;
37885;SDS011;23726;52.520;13.434;2022-07-29T05:25:20;6.72;;;4.40;;
37885;SDS011;23726;52.520;13.434;2022-07-29T05:27:46;6.13;;;4.10;;
37885;SDS011;23726;52.520;13.434;2022-07-29T05:30:13;4.47;;;4.07;;
37885;SDS011;23726;52.520;13.434;2022-07-29T05:32:39;4.95;;;4.13;;
37885;SDS011;23726;52.520;13.434;2022-07-29T05:35:05;7.13;;;4.25;;
37885;SDS011;23726;52.520;13.434;2022-07-29T05:37:32;7.03;;;4.28;;
37885;SDS011;23726;52.520;13.434;2022-07-29T05:39:58;5.68;;;4.30;;
37885;SDS011;23726;52.520;13.434;2022-07-29T05:42:24;7.93;;;4.70;;
37885;SDS011;23726;52.520;13.434;2022-07-29T05:44:50;5.82;;;3.90;;
37885;SDS011;23726;52.520;13.434;2022-07-29T05:47:15;6.28;;;4.38;;
37885;SDS011;23726;52.520;13.434;2022-07-29T05:49:41;6.03;;;3.88;;
37885;SDS011;23726;52.520;13.434;2022-07-29T05:52:06;7.15;;;4.25;;
37885;SDS011;23726;52.520;13.434;2022-07-29T05:54:33;5.60;;;4.47;;
37885;SDS011;23726;52.520;13.434;2022-07-29T05:56:59;5.00;;;4.50;;
37885;SDS011;23726;52.520;13.434;2022-07-29T05:59:25;5.60;;;4.15;;
37885;SDS011;23726;52.520;13.434;2022-07-29T06:01:51;6.15;;;4.45;;
37885;SDS011;23726;52.520;13.434;2022-07-29T06:04:16;6.57;;;4.55;;
37885;SDS011;23726;52.520;13.434;2022-07-29T06:06:43;6.18;;;4.13;;
37885;SDS011;23726;52.520;13.434;2022-07-29T06:09:09;4.68;;;4.05;;
37885;SDS011;23726;52.520;13.434;2022-07-29T06:11:34;4.95;;;4.35;;
37885;SDS011;23726;52.520;13.434;2022-07-29T06:14:00;7.38;;;3.97;;
37885;SDS011;23726;52.520;13.434;2022-07-29T06:16:27;5.97;;;4.20;;
37885;SDS011;23726;52.520;13.434;2022-07-29T06:18:53;7.93;;;4.35;;
37885;SDS011;23726;52.520;13.434;2022-07-29T06:21:19;4.40;;;3.95;;
37885;SDS011;23726;52.520;13.434;2022-07-29T06:23:44;7.85;;;4.60;;
37885;SDS011;23726;52.520;13.434;2022-07-29T06:26:10;7.70;;;4.65;;
37885;SDS011;23726;52.520;13.434;2022-07-29T06:28:36;6.35;;;4.10;;
37885;SDS011;23726;52.520;13.434;2022-07-29T06:31:02;6.10;;;4.60;;
37885;SDS011;23726;52.520;13.434;2022-07-29T06:33:28;5.40;;;4.40;;
37885;SDS011;23726;52.520;13.434;2022-07-29T06:35:54;4.85;;;4.13;;
37885;SDS011;23726;52.520;13.434;2022-07-29T06:38:20;7.53;;;4.50;;
37885;SDS011;23726;52.520;13.434;2022-07-29T06:40:46;6.55;;;4.30;;
37885;SDS011;23726;52.520;13.434;2022-07-29T06:43:29;4.82;;;4.32;;
37885;SDS011;23726;52.520;13.434;2022-07-29T06:46:01;6.45;;;4.32;;
37885;SDS011;23726;52.520;13.434;2022-07-29T06:48:28;6.32;;;4.43;;
37885;SDS011;23726;52.520;13.434;2022-07-29T06:50:54;7.18;;;4.10;;
37885;SDS011;23726;52.520;13.434;2022-07-29T06:53:19;6.30;;;4.18;;
37885;SDS011;23726;52.520;13.434;2022-07-29T06:55:45;6.70;;;4.60;;
37885;SDS011;23726;52.520;13.434;2022-07-29T06:58:11;5.43;;;4.32;;
37885;SDS011;23726;52.520;13.434;2022-07-29T07:00:37;6.60;;;4.50;;
37885;SDS011;23726;52.520;13.434;2022-07-29T07:03:03;5.55;;;4.28;;
37885;SDS011;23726;52.520;13.434;2022-07-29T07:05:28;6.38;;;4.30;;
37885;SDS011;23726;52.520;13.434;2022-07-29T07:07:54;6.65;;;4.40;;
37885;SDS011;23726;52.520;13.434;2022-07-29T07:10:20;5.85;;;4.40;;
37885;SDS011;23726;52.520;13.434;2022-07-29T07:12:47;4.97;;;4.40;;
37885;SDS011;23726;52.520;13.434;2022-07-29T07:15:13;5.03;;;4.10;;
37885;SDS011;23726;52.520;13.434;2022-07-29T07:17:41;9.70;;;4.40;;
37885;SDS011;23726;52.520;13.434;2022-07-29T07:20:07;7.43;;;4.53;;
37885;SDS011;23726;52.520;13.434;2022-07-29T07:22:32;6.85;;;4.53;;
37885;SDS011;23726;52.520;13.434;2022-07-29T07:24:58;6.53;;;4.30;;
37885;SDS011;23726;52.520;13.434;2022-07-29T07:27:23;8.98;;;4.65;;
37885;SDS011;23726;52.520;13.434;2022-07-29T07:29:49;7.85;;;4.57;;
37885;SDS011;23726;52.520;13.434;2022-07-29T07:32:15;9.43;;;4.75;;
37885;SDS011;23726;52.520;13.434;2022-07-29T07:34:41;5.63;;;3.97;;
37885;SDS011;23726;52.520;13.434;2022-07-29T07:37:08;7.05;;;4.68;;
37885;SDS011;23726;52.520;13.434;2022-07-29T07:39:34;6.03;;;4.40;;
37885;SDS011;23726;52.520;13.434;2022-07-29T07:42:00;6.18;;;4.30;;
37885;SDS011;23726;52.520;13.434;2022-07-29T07:44:26;5.10;;;4.38;;
37885;SDS011;23726;52.520;13.434;2022-07-29T07:46:51;6.70;;;4.28;;
37885;SDS011;23726;52.520;13.434;2022-07-29T07:49:19;6.70;;;4.18;;
37885;SDS011;23726;52.520;13.434;2022-07-29T07:51:46;4.47;;;3.85;;
37885;SDS011;23726;52.520;13.434;2022-07-29T07:54:13;6.07;;;3.90;;
37885;SDS011;23726;52.520;13.434;2022-07-29T07:56:39;6.95;;;4.43;;
37885;SDS011;23726;52.520;13.434;2022-07-29T07:59:04;6.97;;;4.30;;
37885;SDS011;23726;52.520;13.434;2022-07-29T08:01:30;7.35;;;4.07;;
37885;SDS011;23726;52.520;13.434;2022-07-29T08:03:56;5.32;;;4.00;;
37885;SDS011;23726;52.520;13.434;2022-07-29T08:06:22;8.02;;;4.07;;
37885;SDS011;23726;52.520;13.434;2022-07-29T08:08:49;4.63;;;4.00;;
37885;SDS011;23726;52.520;13.434;2022-07-29T08:11:15;4.53;;;3.83;;
37885;SDS011;23726;52.520;13.434;2022-07-29T08:13:41;5.90;;;3.72;;
37885;SDS011;23726;52.520;13.434;2022-07-29T08:16:08;11.25;;;4.15;;
37885;SDS011;23726;52.520;13.434;2022-07-29T08:18:37;7.95;;;4.07;;
37885;SDS011;23726;52.520;13.434;2022-07-29T08:21:04;7.65;;;3.78;;
37885;SDS011;23726;52.520;13.434;2022-07-29T08:23:30;5.47;;;3.75;;
37885;SDS011;23726;52.520;13.434;2022-07-29T08:26:10;4.35;;;3.50;;
37885;SDS011;23726;52.520;13.434;2022-07-29T08:28:39;5.72;;;3.60;;
37885;SDS011;23726;52.520;13.434;2022-07-29T08:31:06;3.67;;;3.00;;
37885;SDS011;23726;52.520;13.434;2022-07-29T08:33:32;7.18;;;3.45;;
37885;SDS011;23726;52.520;13.434;2022-07-29T08:35:58;4.75;;;3.47;;
37885;SDS011;23726;52.520;13.434;2022-07-29T08:38:25;6.10;;;3.30;;
37885;SDS011;23726;52.520;13.434;2022-07-29T08:40:52;8.70;;;3.28;;
37885;SDS011;23726;52.520;13.434;2022-07-29T08:43:18;5.93;;;3.80;;
37885;SDS011;23726;52.520;13.434;2022-07-29T08:45:48;4.22;;;3.45;;
37885;SDS011;23726;52.520;13.434;2022-07-29T08:48:16;4.65;;;3.35;;
37885;SDS011;23726;52.520;13.434;2022-07-29T08:50:46;6.13;;;3.10;;
37885;SDS011;23726;52.520;13.434;2022-07-29T08:53:14;4.07;;;3.30;;
37885;SDS011;23726;52.520;13.434;2022-07-29T08:55:42;6.65;;;3.75;;
37885;SDS011;23726;52.520;13.434;2022-07-29T08:58:11;4.93;;;2.92;;
37885;SDS011;23726;52.520;13.434;2022-07-29T09:00:38;3.95;;;3.30;;
37885;SDS011;23726;52.520;13.434;2022-07-29T09:03:07;4.07;;;3.08;;
37885;SDS011;23726;52.520;13.434;2022-07-29T09:05:35;6.05;;;3.55;;
37885;SDS011;23726;52.520;13.434;2022-07-29T09:08:02;5.53;;;3.15;;
37885;SDS011;23726;52.520;13.434;2022-07-29T09:10:29;4.78;;;3.30;;
37885;SDS011;23726;52.520;13.434;2022-07-29T09:12:55;4.72;;;3.28;;
37885;SDS011;23726;52.520;13.434;2022-07-29T09:15:21;7.15;;;3.22;;
37885;SDS011;23726;52.520;13.434;2022-07-29T09:17:47;5.20;;;3.22;;
37885;SDS011;23726;52.520;13.434;2022-07-29T09:20:15;5.75;;;4.05;;
37885;SDS011;23726;52.520;13.434;2022-07-29T09:22:45;3.90;;;2.92;;
37885;SDS011;23726;52.520;13.434;2022-07-29T09:25:14;4.47;;;3.25;;
37885;SDS011;23726;52.520;13.434;2022-07-29T09:28:04;5.93;;;3.20;;
37885;SDS011;23726;52.520;13.434;2022-07-29T09:30:31;5.07;;;3.15;;
37885;SDS011;23726;52.520;13.434;2022-07-29T09:32:57;4.95;;;3.60;;
37885;SDS011;23726;52.520;13.434;2022-07-29T09:35:26;5.88;;;3.45;;
37885;SDS011;23726;52.520;13.434;2022-07-29T09:37:52;4.78;;;3.30;;
37885;SDS011;23726;52.520;13.434;2022-07-29T09:40:22;5.45;;;3.35;;
37885;SDS011;23726;52.520;13.434;2022-07-29T09:42:50;7.65;;;3.60;;
37885;SDS011;23726;52.520;13.434;2022-07-29T09:45:33;5.03;;;3.47;;
37885;SDS011;23726;52.520;13.434;2022-07-29T09:48:16;5.32;;;3.33;;
37885;SDS011;23726;52.520;13.434;2022-07-29T09:50:43;8.10;;;3.22;;
37885;SDS011;23726;52.520;13.434;2022-07-29T09:53:29;6.95;;;3.30;;
37885;SDS011;23726;52.520;13.434;2022-07-29T09:55:58;6.80;;;3.10;;
37885;SDS011;23726;52.520;13.434;2022-07-29T09:58:23;4.15;;;2.78;;
37885;SDS011;23726;52.520;13.434;2022-07-29T10:00:49;4.78;;;2.85;;
37885;SDS011;23726;52.520;13.434;2022-07-29T10:03:18;5.78;;;2.95;;
37885;SDS011;23726;52.520;13.434;2022-07-29T10:05:45;6.13;;;2.65;;
37885;SDS011;23726;52.520;13.434;2022-07-29T10:08:11;4.80;;;3.03;;
37885;SDS011;23726;52.520;13.434;2022-07-29T10:10:38;4.15;;;2.90;;
37885;SDS011;23726;52.520;13.434;2022-07-29T10:13:11;5.25;;;3.17;;
37885;SDS011;23726;52.520;13.434;2022-07-29T10:15:39;3.05;;;2.67;;
37885;SDS011;23726;52.520;13.434;2022-07-29T10:20:36;9.23;;;3.15;;
37885;SDS011;23726;52.520;13.434;2022-07-29T10:23:03;5.68;;;2.90;;
37885;SDS011;23726;52.520;13.434;2022-07-29T10:25:29;3.65;;;2.80;;
37885;SDS011;23726;52.520;13.434;2022-07-29T10:27:55;4.82;;;3.05;;
37885;SDS011;23726;52.520;13.434;2022-07-29T10:30:22;6.65;;;3.20;;
37885;SDS011;23726;52.520;13.434;2022-07-29T10:35:54;3.15;;;2.80;;
37885;SDS011;23726;52.520;13.434;2022-07-29T10:41:16;3.90;;;2.92;;
37885;SDS011;23726;52.520;13.434;2022-07-29T10:44:09;5.15;;;3.20;;
37885;SDS011;23726;52.520;13.434;2022-07-29T10:46:40;4.00;;;2.90;;
37885;SDS011;23726;52.520;13.434;2022-07-29T10:51:56;8.20;;;3.17;;
37885;SDS011;23726;52.520;13.434;2022-07-29T10:59:40;9.80;;;4.20;;
37885;SDS011;23726;52.520;13.434;2022-07-29T11:05:00;11.40;;;4.43;;
37885;SDS011;23726;52.520;13.434;2022-07-29T11:07:31;9.00;;;4.68;;
37885;SDS011;23726;52.520;13.434;2022-07-29T11:15:05;12.82;;;6.95;;
37885;SDS011;23726;52.520;13.434;2022-07-29T11:20:31;26.73;;;11.57;;
37885;SDS011;23726;52.520;13.434;2022-07-29T11:22:57;36.78;;;17.15;;
37885;SDS011;23726;52.520;13.434;2022-07-29T11:25:23;46.53;;;19.92;;
37885;SDS011;23726;52.520;13.434;2022-07-29T11:27:51;41.95;;;18.40;;
37885;SDS011;23726;52.520;13.434;2022-07-29T11:30:19;32.88;;;16.70;;
37885;SDS011;23726;52.520;13.434;2022-07-29T11:32:45;38.95;;;17.42;;
37885;SDS011;23726;52.520;13.434;2022-07-29T11:37:39;35.65;;;17.42;;
37885;SDS011;23726;52.520;13.434;2022-07-29T11:44:59;29.20;;;14.68;;
37885;SDS011;23726;52.520;13.434;2022-07-29T11:47:40;33.33;;;14.05;;
37885;SDS011;23726;52.520;13.434;2022-07-29T11:50:13;33.75;;;14.55;;
37885;SDS011;23726;52.520;13.434;2022-07-29T11:52:46;28.33;;;13.85;;
37885;SDS011;23726;52.520;13.434;2022-07-29T11:55:13;26.98;;;10.70;;
37885;SDS011;23726;52.520;13.434;2022-07-29T11:57:59;28.35;;;11.48;;
37885;SDS011;23726;52.520;13.434;2022-07-29T12:00:26;22.77;;;11.30;;
37885;SDS011;23726;52.520;13.434;2022-07-29T12:02:54;21.83;;;10.23;;
37885;SDS011;23726;52.520;13.434;2022-07-29T12:05:20;22.25;;;10.73;;
37885;SDS011;23726;52.520;13.434;2022-07-29T12:07:46;21.67;;;10.00;;
37885;SDS011;23726;52.520;13.434;2022-07-29T12:10:13;16.85;;;9.38;;
37885;SDS011;23726;52.520;13.434;2022-07-29T12:12:39;15.80;;;7.90;;
37885;SDS011;23726;52.520;13.434;2022-07-29T12:15:38;18.52;;;8.63;;
37885;SDS011;23726;52.520;13.434;2022-07-29T12:17:57;18.92;;;8.88;;
37885;SDS011;23726;52.520;13.434;2022-07-29T12:20:23;15.13;;;7.43;;
37885;SDS011;23726;52.520;13.434;2022-07-29T12:22:54;12.48;;;7.03;;
37885;SDS011;23726;52.520;13.434;2022-07-29T12:25:21;16.38;;;7.78;;
37885;SDS011;23726;52.520;13.434;2022-07-29T12:27:58;19.38;;;7.88;;
37885;SDS011;23726;52.520;13.434;2022-07-29T12:30:33;14.60;;;8.05;;
37885;SDS011;23726;52.520;13.434;2022-07-29T12:33:20;12.15;;;6.97;;
37885;SDS011;23726;52.520;13.434;2022-07-29T12:35:52;12.57;;;6.80;;
37885;SDS011;23726;52.520;13.434;2022-07-29T12:38:21;16.77;;;7.28;;
37885;SDS011;23726;52.520;13.434;2022-07-29T12:40:48;11.30;;;6.43;;
37885;SDS011;23726;52.520;13.434;2022-07-29T12:43:19;11.93;;;6.72;;
37885;SDS011;23726;52.520;13.434;2022-07-29T12:45:48;12.40;;;7.20;;
37885;SDS011;23726;52.520;13.434;2022-07-29T12:48:32;11.65;;;6.43;;
37885;SDS011;23726;52.520;13.434;2022-07-29T12:51:06;9.82;;;6.35;;
37885;SDS011;23726;52.520;13.434;2022-07-29T12:53:33;10.65;;;6.93;;
37885;SDS011;23726;52.520;13.434;2022-07-29T12:56:00;11.27;;;6.07;;
37885;SDS011;23726;52.520;13.434;2022-07-29T12:58:40;12.25;;;6.78;;
37885;SDS011;23726;52.520;13.434;2022-07-29T13:01:10;11.82;;;6.10;;
37885;SDS011;23726;52.520;13.434;2022-07-29T13:03:57;9.40;;;6.25;;
37885;SDS011;23726;52.520;13.434;2022-07-29T13:06:39;10.25;;;6.47;;
37885;SDS011;23726;52.520;13.434;2022-07-29T13:11:40;9.60;;;6.10;;
37885;SDS011;23726;52.520;13.434;2022-07-29T13:14:08;9.38;;;6.20;;
37885;SDS011;23726;52.520;13.434;2022-07-29T13:19:34;9.50;;;5.97;;
37885;SDS011;23726;52.520;13.434;2022-07-29T13:22:41;7.65;;;5.88;;
37885;SDS011;23726;52.520;13.434;2022-07-29T13:25:01;7.53;;;5.47;;
37885;SDS011;23726;52.520;13.434;2022-07-29T13:27:27;8.70;;;6.28;;
37885;SDS011;23726;52.520;13.434;2022-07-29T13:29:55;7.90;;;5.75;;
37885;SDS011;23726;52.520;13.434;2022-07-29T13:32:22;8.73;;;5.60;;
37885;SDS011;23726;52.520;13.434;2022-07-29T13:34:49;8.10;;;5.78;;
37885;SDS011;23726;52.520;13.434;2022-07-29T13:37:15;8.50;;;5.60;;
37885;SDS011;23726;52.520;13.434;2022-07-29T13:39:42;8.52;;;5.70;;
37885;SDS011;23726;52.520;13.434;2022-07-29T13:42:08;7.18;;;5.82;;
37885;SDS011;23726;52.520;13.434;2022-07-29T13:44:41;8.77;;;5.35;;
37885;SDS011;23726;52.520;13.434;2022-07-29T13:47:07;9.20;;;5.70;;
37885;SDS011;23726;52.520;13.434;2022-07-29T13:49:33;7.35;;;5.18;;
37885;SDS011;23726;52.520;13.434;2022-07-29T13:52:00;10.90;;;5.82;;
37885;SDS011;23726;52.520;13.434;2022-07-29T13:54:26;13.27;;;6.18;;
37885;SDS011;23726;52.520;13.434;2022-07-29T13:56:51;9.45;;;5.68;;
37885;SDS011;23726;52.520;13.434;2022-07-29T13:59:17;10.98;;;5.80;;
37885;SDS011;23726;52.520;13.434;2022-07-29T14:01:43;10.52;;;5.78;;
37885;SDS011;23726;52.520;13.434;2022-07-29T14:04:10;7.93;;;5.40;;
37885;SDS011;23726;52.520;13.434;2022-07-29T14:06:36;11.63;;;5.82;;
37885;SDS011;23726;52.520;13.434;2022-07-29T14:09:02;7.43;;;5.25;;
37885;SDS011;23726;52.520;13.434;2022-07-29T14:11:31;8.50;;;5.78;;
37885;SDS011;23726;52.520;13.434;2022-07-29T14:13:57;9.70;;;5.82;;
37885;SDS011;23726;52.520;13.434;2022-07-29T14:16:22;8.90;;;5.45;;
37885;SDS011;23726;52.520;13.434;2022-07-29T14:18:48;7.57;;;5.18;;
37885;SDS011;23726;52.520;13.434;2022-07-29T14:21:13;10.35;;;5.20;;
37885;SDS011;23726;52.520;13.434;2022-07-29T14:23:39;9.07;;;5.03;;
37885;SDS011;23726;52.520;13.434;2022-07-29T14:26:05;7.90;;;5.30;;
37885;SDS011;23726;52.520;13.434;2022-07-29T14:28:31;8.23;;;5.60;;
37885;SDS011;23726;52.520;13.434;2022-07-29T14:30:56;7.90;;;4.90;;
37885;SDS011;23726;52.520;13.434;2022-07-29T14:33:22;9.18;;;5.90;;
37885;SDS011;23726;52.520;13.434;2022-07-29T14:35:48;8.05;;;5.13;;
37885;SDS011;23726;52.520;13.434;2022-07-29T14:38:15;8.93;;;5.70;;
37885;SDS011;23726;52.520;13.434;2022-07-29T14:40:40;10.15;;;5.93;;
37885;SDS011;23726;52.520;13.434;2022-07-29T14:43:06;5.88;;;5.00;;
37885;SDS011;23726;52.520;13.434;2022-07-29T14:45:32;8.63;;;5.00;;
37885;SDS011;23726;52.520;13.434;2022-07-29T14:47:57;6.72;;;4.88;;
37885;SDS011;23726;52.520;13.434;2022-07-29T14:50:23;8.18;;;5.28;;
37885;SDS011;23726;52.520;13.434;2022-07-29T14:52:51;6.03;;;5.38;;
37885;SDS011;23726;52.520;13.434;2022-07-29T14:55:16;6.88;;;5.55;;
37885;SDS011;23726;52.520;13.434;2022-07-29T14:57:42;9.13;;;5.65;;
37885;SDS011;23726;52.520;13.434;2022-07-29T15:00:08;7.70;;;5.40;;
37885;SDS011;23726;52.520;13.434;2022-07-29T15:02:36;7.72;;;5.30;;
37885;SDS011;23726;52.520;13.434;2022-07-29T15:05:02;5.93;;;5.25;;
37885;SDS011;23726;52.520;13.434;2022-07-29T15:07:27;6.25;;;5.15;;
37885;SDS011;23726;52.520;13.434;2022-07-29T15:09:53;8.38;;;5.63;;
37885;SDS011;23726;52.520;13.434;2022-07-29T15:12:18;5.85;;;4.88;;
37885;SDS011;23726;52.520;13.434;2022-07-29T15:14:44;6.53;;;5.45;;
37885;SDS011;23726;52.520;13.434;2022-07-29T15:17:10;7.32;;;5.18;;
37885;SDS011;23726;52.520;13.434;2022-07-29T15:19:36;6.10;;;4.95;;
37885;SDS011;23726;52.520;13.434;2022-07-29T15:22:02;6.65;;;5.20;;
37885;SDS011;23726;52.520;13.434;2022-07-29T15:24:29;6.60;;;5.10;;
37885;SDS011;23726;52.520;13.434;2022-07-29T15:26:55;6.95;;;5.53;;
37885;SDS011;23726;52.520;13.434;2022-07-29T15:29:21;6.95;;;5.28;;
37885;SDS011;23726;52.520;13.434;2022-07-29T15:31:47;6.93;;;5.10;;
37885;SDS011;23726;52.520;13.434;2022-07-29T15:34:14;7.00;;;5.13;;